Time;durP1;ratioP1;P1;durP2;ratioP2;P2;SDS_P1;SDS_P2;PMS_P1;PMS_P2;Temp;Humidity;BMP_temperature;BMP_pressure;BME280_temperature;BME280_humidity;BME280_pressure;Samples;Min_cycle;Max_cycle;Signal;HPM_P1;HPM_P2
2022/09/17 00:00:18;;;;;;;3.22;1.00;;;;;;;8.27;100.00;98399.44;5061785;28;20025;-69
2022/09/17 00:02:46;;;;;;;1.80;0.80;;;;;;;8.24;100.00;98389.91;5055987;28;20060;-69
2022/09/17 00:05:11;;;;;;;1.42;0.75;;;;;;;8.38;100.00;98406.97;5057783;28;20037;-69
2022/09/17 00:07:37;;;;;;;2.78;1.20;;;;;;;8.40;100.00;98402.25;5059953;28;20872;-69
2022/09/17 00:10:03;;;;;;;6.75;1.00;;;;;;;8.37;100.00;98393.72;5056927;28;20449;-69
2022/09/17 00:12:30;;;;;;;1.52;0.75;;;;;;;8.50;100.00;98394.63;5057521;28;20108;-69
2022/09/17 00:14:56;;;;;;;2.05;0.65;;;;;;;8.48;100.00;98383.22;5050469;28;20024;-69
2022/09/17 00:17:22;;;;;;;0.95;0.80;;;;;;;8.70;100.00;98399.31;5049316;28;20033;-70
2022/09/17 00:19:48;;;;;;;4.05;1.10;;;;;;;8.70;100.00;98388.50;5047022;28;20021;-69
2022/09/17 00:22:14;;;;;;;5.05;0.95;;;;;;;8.83;100.00;98399.34;5043857;28;20429;-70
2022/09/17 00:24:39;;;;;;;1.77;0.90;;;;;;;8.82;100.00;98386.88;5045713;28;20026;-69
2022/09/17 00:27:05;;;;;;;2.83;0.88;;;;;;;8.74;100.00;98384.38;5052720;28;20025;-68
2022/09/17 00:29:30;;;;;;;1.77;0.90;;;;;;;8.78;100.00;98383.78;5049767;28;20033;-69
2022/09/17 00:31:55;;;;;;;1.25;0.88;;;;;;;8.92;100.00;98400.00;5048489;28;20075;-69
2022/09/17 00:34:20;;;;;;;3.10;1.10;;;;;;;9.02;100.00;98396.91;5052522;28;20059;-68
2022/09/17 00:36:46;;;;;;;1.05;0.60;;;;;;;9.05;100.00;98401.91;5055807;28;20035;-68
2022/09/17 00:39:14;;;;;;;2.30;0.80;;;;;;;9.03;100.00;98390.47;5046450;28;20035;-70
2022/09/17 00:41:40;;;;;;;1.10;0.52;;;;;;;9.08;100.00;98393.41;5049568;28;20539;-69
2022/09/17 00:44:43;;;;;;;1.73;0.60;;;;;;;9.12;100.00;98397.38;5045405;28;20021;-68
2022/09/17 00:47:38;;;;;;;0.82;0.60;;;;;;;9.17;100.00;98400.28;5046502;28;20032;-68
2022/09/17 00:50:12;;;;;;;2.88;0.73;;;;;;;9.09;100.00;98393.22;5042349;28;20041;-68
2022/09/17 00:52:42;;;;;;;1.42;0.70;;;;;;;9.00;100.00;98400.63;5047054;28;20087;-68
2022/09/17 00:55:18;;;;;;;3.45;0.68;;;;;;;8.94;100.00;98398.75;5043921;28;20044;-68
2022/09/17 00:57:44;;;;;;;0.93;0.80;;;;;;;8.86;100.00;98398.94;5044537;28;20091;-68
2022/09/17 01:00:12;;;;;;;0.93;0.60;;;;;;;8.71;100.00;98399.09;5042206;28;20032;-68
2022/09/17 01:02:38;;;;;;;1.77;0.80;;;;;;;8.56;100.00;98388.44;5047150;28;20070;-68
2022/09/17 01:05:04;;;;;;;2.42;1.15;;;;;;;8.22;100.00;98358.78;5048881;28;20106;-68
2022/09/17 01:07:55;;;;;;;1.05;0.75;;;;;;;8.21;100.00;98395.69;5047823;28;20486;-68
2022/09/17 01:10:46;;;;;;;1.85;1.02;;;;;;;8.27;100.00;98418.31;5044707;28;20029;-69
2022/09/17 01:13:28;;;;;;;3.25;0.88;;;;;;;8.37;100.00;98401.81;5046606;28;20024;-68
2022/09/17 01:16:11;;;;;;;2.03;0.70;;;;;;;8.49;100.00;98419.13;5053031;28;20037;-69
2022/09/17 01:18:58;;;;;;;2.40;0.70;;;;;;;8.65;100.00;98401.78;5053485;28;20025;-68
2022/09/17 01:21:29;;;;;;;0.55;0.38;;;;;;;8.74;100.00;98406.78;5046376;28;20021;-68
2022/09/17 01:24:04;;;;;;;2.20;0.40;;;;;;;8.74;100.00;98406.78;5051056;28;20104;-69
2022/09/17 01:26:38;;;;;;;4.03;0.80;;;;;;;8.73;100.00;98415.06;5051832;28;20087;-69
2022/09/17 01:29:21;;;;;;;2.08;0.60;;;;;;;8.71;100.00;98409.03;5043395;28;20025;-69
2022/09/17 01:31:49;;;;;;;1.55;0.80;;;;;;;8.67;100.00;98410.47;5050255;28;20728;-69
2022/09/17 01:34:15;;;;;;;1.90;0.50;;;;;;;8.62;100.00;98410.22;5044000;28;20021;-69
2022/09/17 01:37:02;;;;;;;6.93;0.80;;;;;;;8.55;100.00;98419.13;5043459;28;20037;-69
2022/09/17 01:39:27;;;;;;;1.58;0.70;;;;;;;8.51;100.00;98420.59;5049086;28;20498;-69
2022/09/17 01:42:16;;;;;;;2.40;0.80;;;;;;;8.45;100.00;98415.97;5037267;28;20063;-67
2022/09/17 01:45:00;;;;;;;3.45;0.90;;;;;;;8.51;100.00;98423.28;5041266;28;20017;-71
2022/09/17 01:47:37;;;;;;;2.30;0.60;;;;;;;8.46;100.00;98420.34;5051690;28;20029;-69
2022/09/17 01:50:08;;;;;;;2.40;0.52;;;;;;;8.43;100.00;98420.72;5049841;28;20029;-67
2022/09/17 01:52:37;;;;;;;1.40;1.00;;;;;;;8.31;100.00;98420.44;5043992;28;20017;-69
2022/09/17 01:55:06;;;;;;;0.82;0.52;;;;;;;8.16;100.00;98425.09;5051709;28;20078;-69
2022/09/17 01:57:55;;;;;;;0.98;0.52;;;;;;;8.09;100.00;98430.44;5052334;28;20041;-69
2022/09/17 02:00:21;;;;;;;2.00;0.73;;;;;;;7.90;100.00;98393.41;5051778;28;20035;-69
2022/09/17 02:03:01;;;;;;;2.47;0.60;;;;;;;8.06;100.00;98436.22;5047314;28;20029;-69
2022/09/17 02:05:33;;;;;;;1.35;0.75;;;;;;;8.06;100.00;98430.00;5046455;28;20021;-69
2022/09/17 02:08:07;;;;;;;3.40;0.60;;;;;;;8.00;100.00;98420.84;5049387;28;20020;-69
2022/09/17 02:10:58;;;;;;;2.97;0.60;;;;;;;7.97;100.00;98415.84;5043910;28;20055;-69
2022/09/17 02:13:40;;;;;;;3.53;0.60;;;;;;;7.87;100.00;98421.56;5035395;28;20405;-67
2022/09/17 02:16:23;;;;;;;1.38;0.52;;;;;;;7.79;100.00;98424.41;5051564;28;20390;-68
2022/09/17 02:19:03;;;;;;;5.55;0.98;;;;;;;7.87;100.00;98431.53;5047124;28;20017;-68
2022/09/17 02:21:37;;;;;;;4.22;0.60;;;;;;;8.04;100.00;98435.59;5050380;28;20392;-69
2022/09/17 02:24:24;;;;;;;3.60;0.82;;;;;;;8.01;100.00;98418.97;5048342;28;20032;-69
2022/09/17 02:26:54;;;;;;;1.00;0.70;;;;;;;8.07;100.00;98427.13;5048975;28;20489;-68
2022/09/17 02:29:32;;;;;;;1.33;0.60;;;;;;;7.96;100.00;98414.16;5049659;28;20028;-68
2022/09/17 02:31:57;;;;;;;1.13;0.55;;;;;;;8.06;100.00;98436.22;5049445;28;20035;-69
2022/09/17 02:34:25;;;;;;;4.95;1.38;;;;;;;8.13;100.00;98445.19;5047231;28;20120;-69
2022/09/17 02:36:51;;;;;;;6.53;0.80;;;;;;;8.04;100.00;98408.66;5049007;28;20122;-69
2022/09/17 02:39:16;;;;;;;2.55;0.65;;;;;;;8.09;100.00;98406.19;5049535;28;20037;-69
2022/09/17 02:41:55;;;;;;;4.05;0.80;;;;;;;8.24;100.00;98416.84;5048259;28;20462;-69
2022/09/17 02:44:31;;;;;;;5.57;0.90;;;;;;;8.17;100.00;98409.75;5042085;28;20397;-68
2022/09/17 02:47:30;;;;;;;5.18;0.70;;;;;;;8.26;100.00;98440.91;5047484;28;20115;-69
2022/09/17 02:50:09;;;;;;;5.05;0.90;;;;;;;8.30;100.00;98429.53;5046192;28;20136;-69
2022/09/17 02:52:40;;;;;;;2.97;0.73;;;;;;;8.34;100.00;98430.81;5048359;28;20522;-68
2022/09/17 02:55:22;;;;;;;1.45;0.50;;;;;;;8.35;100.00;98424.38;5045769;28;20033;-69
2022/09/17 02:57:53;;;;;;;1.20;0.68;;;;;;;8.44;100.00;98427.78;5051180;28;20045;-69
2022/09/17 03:00:21;;;;;;;0.75;0.60;;;;;;;8.57;100.00;98418.94;5048570;28;20025;-69
2022/09/17 03:03:07;;;;;;;2.33;0.73;;;;;;;8.62;100.00;98418.31;5063803;28;20040;-69
2022/09/17 03:05:35;;;;;;;4.93;0.77;;;;;;;8.51;100.00;98404.41;5044022;28;20419;-68
2022/09/17 03:08:01;;;;;;;1.60;0.60;;;;;;;8.46;100.00;98398.78;5045145;28;20456;-69
2022/09/17 03:10:32;;;;;;;1.55;0.80;;;;;;;8.31;100.00;98390.78;5047918;28;20028;-69
2022/09/17 03:12:58;;;;;;;4.05;0.63;;;;;;;8.44;100.00;98414.31;5050007;28;20024;-69
2022/09/17 03:15:23;;;;;;;1.52;0.50;;;;;;;8.48;100.00;98414.75;5046775;28;20021;-69
2022/09/17 03:17:49;;;;;;;5.53;0.90;;;;;;;8.49;100.00;98414.56;5049839;28;20033;-69
2022/09/17 03:20:14;;;;;;;6.70;0.95;;;;;;;8.37;100.00;98397.22;5046848;28;20055;-69
2022/09/17 03:22:40;;;;;;;3.40;0.60;;;;;;;8.41;100.00;98412.03;5049451;28;20025;-69
2022/09/17 03:25:06;;;;;;;3.13;0.70;;;;;;;8.26;100.00;98384.31;5048489;28;20032;-67
2022/09/17 03:27:31;;;;;;;3.13;1.17;;;;;;;8.24;100.00;98392.59;5048198;28;20048;-68
2022/09/17 03:29:57;;;;;;;5.93;1.02;;;;;;;8.26;100.00;98419.38;5047756;28;20021;-69
2022/09/17 03:32:22;;;;;;;4.57;1.00;;;;;;;8.22;100.00;98416.22;5049171;28;20024;-69
2022/09/17 03:34:47;;;;;;;4.28;1.00;;;;;;;8.23;100.00;98417.91;5040005;28;20021;-68
2022/09/17 03:37:13;;;;;;;2.08;1.20;;;;;;;8.10;100.00;98402.47;5048508;28;20074;-69
2022/09/17 03:39:38;;;;;;;2.38;0.93;;;;;;;8.21;100.00;98411.88;5049671;28;20106;-69
2022/09/17 03:42:03;;;;;;;3.03;1.08;;;;;;;8.22;100.00;98424.28;5044197;28;20025;-69
2022/09/17 03:44:29;;;;;;;2.35;1.00;;;;;;;8.29;100.00;98416.25;5050247;28;20029;-69
2022/09/17 03:46:54;;;;;;;4.65;1.05;;;;;;;8.24;100.00;98410.63;5050378;28;20409;-69
2022/09/17 03:49:19;;;;;;;8.88;1.20;;;;;;;8.42;100.00;98432.53;5050434;28;20107;-68
2022/09/17 03:51:45;;;;;;;9.88;1.55;;;;;;;8.42;100.00;98412.84;5049461;28;20482;-69
2022/09/17 03:54:10;;;;;;;3.28;1.20;;;;;;;8.45;100.00;98429.44;5046179;28;20418;-67
2022/09/17 03:56:35;;;;;;;5.90;1.65;;;;;;;8.29;100.00;98403.63;5047880;28;20029;-69
2022/09/17 03:59:01;;;;;;;5.90;1.30;;;;;;;8.32;100.00;98407.78;5047923;28;20029;-68
2022/09/17 04:01:27;;;;;;;2.50;1.20;;;;;;;8.30;100.00;98412.53;5050856;28;20032;-66
2022/09/17 04:03:53;;;;;;;5.20;1.67;;;;;;;8.29;100.00;98419.78;5046313;28;20025;-68
2022/09/17 04:06:19;;;;;;;2.70;1.67;;;;;;;8.34;100.00;98436.19;5049257;28;20498;-67
2022/09/17 04:08:44;;;;;;;5.38;1.38;;;;;;;8.38;100.00;98428.53;5044778;28;20029;-67
2022/09/17 04:11:10;;;;;;;9.48;1.50;;;;;;;8.45;100.00;98439.41;5045253;28;20398;-69
2022/09/17 04:13:35;;;;;;;10.13;1.30;;;;;;;8.49;100.00;98440.69;5049981;28;20455;-69
2022/09/17 04:16:01;;;;;;;6.53;1.50;;;;;;;8.42;100.00;98420.94;5049122;28;20032;-68
2022/09/17 04:18:27;;;;;;;4.22;1.20;;;;;;;8.29;100.00;98413.56;5045054;28;20035;-69
2022/09/17 04:20:52;;;;;;;6.10;1.40;;;;;;;8.30;100.00;98443.00;5044383;28;20033;-69
2022/09/17 04:23:18;;;;;;;5.00;1.10;;;;;;;8.15;100.00;98438.75;5056257;28;20103;-69
2022/09/17 04:25:43;;;;;;;7.05;1.30;;;;;;;8.07;100.00;98431.69;5044797;28;20032;-69
2022/09/17 04:28:08;;;;;;;5.00;1.30;;;;;;;8.22;100.00;98448.56;5048536;28;20440;-69
2022/09/17 04:30:34;;;;;;;7.35;1.10;;;;;;;8.17;100.00;98450.19;5050108;28;20028;-68
2022/09/17 04:32:59;;;;;;;4.13;1.20;;;;;;;8.20;100.00;98437.16;5046361;28;20552;-68
2022/09/17 04:35:24;;;;;;;5.57;1.10;;;;;;;8.15;100.00;98427.97;5049040;28;20037;-69
2022/09/17 04:37:54;;;;;;;5.18;1.35;;;;;;;8.18;100.00;98427.59;5046045;28;20052;-68
2022/09/17 04:40:21;;;;;;;2.30;1.00;;;;;;;8.29;100.00;98437.81;5050657;28;20382;-69
2022/09/17 04:42:47;;;;;;;5.32;1.50;;;;;;;8.29;100.00;98445.91;5042335;28;20047;-68
2022/09/17 04:45:12;;;;;;;4.15;1.08;;;;;;;8.18;100.00;98443.78;5055014;22;20124;-68
2022/09/17 04:47:38;;;;;;;4.82;1.50;;;;;;;7.98;100.00;98428.28;5029201;28;20419;-69
2022/09/17 04:50:04;;;;;;;3.05;1.13;;;;;;;8.10;100.00;98450.16;5030269;28;20025;-69
2022/09/17 04:52:29;;;;;;;10.32;1.02;;;;;;;8.02;100.00;98453.81;5030033;28;20037;-74
2022/09/17 04:54:55;;;;;;;8.45;1.27;;;;;;;7.72;100.00;98406.53;5027277;28;20024;-75
2022/09/17 04:57:24;;;;;;;5.13;1.23;;;;;;;7.97;100.00;98452.75;5034302;28;20492;-77
2022/09/17 04:59:49;;;;;;;4.50;1.55;;;;;;;7.90;100.00;98450.81;5030839;28;22983;-75
2022/09/17 05:02:15;;;;;;;3.95;1.42;;;;;;;7.98;100.00;98457.09;5034352;28;20031;-76
2022/09/17 05:04:40;;;;;;;4.65;1.50;;;;;;;7.81;100.00;98443.91;5031039;28;20116;-75
2022/09/17 05:07:05;;;;;;;2.17;1.40;;;;;;;7.81;100.00;98448.47;5034673;28;20021;-75
2022/09/17 05:09:30;;;;;;;3.03;1.50;;;;;;;7.97;100.00;98467.03;5035550;28;20029;-75
2022/09/17 05:11:56;;;;;;;5.00;1.73;;;;;;;8.05;100.00;98476.84;5033904;28;20068;-76
2022/09/17 05:14:22;;;;;;;3.75;1.50;;;;;;;8.18;100.00;98468.84;5034427;28;20026;-75
2022/09/17 05:16:47;;;;;;;6.82;1.92;;;;;;;8.16;100.00;98467.38;5034995;28;20084;-75
2022/09/17 05:19:12;;;;;;;7.03;1.40;;;;;;;8.25;100.00;98475.13;5032179;28;20033;-75
2022/09/17 05:21:38;;;;;;;3.42;1.40;;;;;;;8.30;100.00;98488.00;5031385;28;20025;-75
2022/09/17 05:24:03;;;;;;;4.13;1.58;;;;;;;8.28;100.00;98472.03;5033768;28;20025;-75
2022/09/17 05:26:29;;;;;;;3.00;1.35;;;;;;;8.32;100.00;98467.06;5032935;28;20048;-75
2022/09/17 05:28:54;;;;;;;2.45;1.33;;;;;;;8.30;100.00;98452.97;5033605;28;20029;-75
2022/09/17 05:31:19;;;;;;;6.25;1.70;;;;;;;8.52;100.00;98475.34;5027343;28;20120;-70
2022/09/17 05:33:45;;;;;;;2.13;1.38;;;;;;;8.44;100.00;98452.06;5040192;28;20434;-72
2022/09/17 05:36:10;;;;;;;6.15;1.58;;;;;;;8.76;100.00;98490.19;5027454;28;20091;-71
2022/09/17 05:38:35;;;;;;;4.13;1.70;;;;;;;8.96;100.00;98491.13;5031962;28;20021;-71
2022/09/17 05:41:06;;;;;;;7.95;1.67;;;;;;;8.92;100.00;98484.47;5031250;28;20026;-71
2022/09/17 05:43:32;;;;;;;5.07;1.70;;;;;;;8.83;100.00;98480.28;5031082;28;20029;-71
2022/09/17 05:46:05;;;;;;;8.15;1.60;;;;;;;8.80;100.00;98488.75;5029859;28;20044;-70
2022/09/17 05:48:31;;;;;;;8.73;1.70;;;;;;;8.88;100.00;98488.59;5027909;28;20033;-71
2022/09/17 05:50:56;;;;;;;7.70;1.58;;;;;;;8.95;100.00;98492.16;5027083;28;20079;-72
2022/09/17 05:53:21;;;;;;;4.60;1.75;;;;;;;8.85;100.00;98485.47;5025343;28;20040;-71
2022/09/17 05:55:46;;;;;;;2.92;1.90;;;;;;;8.93;100.00;98494.22;5026493;28;20523;-71
2022/09/17 05:58:14;;;;;;;3.92;1.80;;;;;;;8.87;100.00;98496.88;5026465;28;20033;-71
2022/09/17 06:00:40;;;;;;;4.85;1.70;;;;;;;8.71;100.00;98476.47;5022134;28;20026;-72
2022/09/17 06:03:08;;;;;;;3.25;1.65;;;;;;;8.86;100.00;98504.16;5026002;28;20021;-72
2022/09/17 06:05:34;;;;;;;4.60;1.90;;;;;;;8.85;100.00;98493.53;5027646;28;20029;-72
2022/09/17 06:07:59;;;;;;;4.70;1.55;;;;;;;9.08;100.00;98501.34;5029101;28;20076;-71
2022/09/17 06:10:24;;;;;;;6.35;1.80;;;;;;;9.23;100.00;98499.31;5023154;28;20108;-71
2022/09/17 06:12:55;;;;;;;6.55;1.63;;;;;;;9.09;100.00;98484.97;5025880;28;20071;-71
2022/09/17 06:15:20;;;;;;;4.35;1.52;;;;;;;9.12;100.00;98491.81;5028257;28;20467;-71
2022/09/17 06:17:46;;;;;;;4.68;1.77;;;;;;;8.97;100.00;98497.34;5025260;28;20068;-71
2022/09/17 06:20:11;;;;;;;2.75;1.70;;;;;;;9.06;100.00;98506.94;5024004;28;20021;-70
2022/09/17 06:22:43;;;;;;;5.03;1.60;;;;;;;9.02;100.00;98516.47;5023906;28;20095;-71
2022/09/17 06:25:11;;;;;;;8.85;2.38;;;;;;;9.12;100.00;98489.94;5022659;28;20032;-74
2022/09/17 06:27:36;;;;;;;8.73;1.50;;;;;;;9.12;100.00;98494.53;5027392;28;20101;-72
2022/09/17 06:30:02;;;;;;;7.53;1.60;;;;;;;9.09;100.00;98511.94;5032878;28;20152;-74
2022/09/17 06:32:28;;;;;;;5.07;1.45;;;;;;;9.12;100.00;98513.41;5031397;28;20029;-73
2022/09/17 06:34:57;;;;;;;2.03;1.30;;;;;;;9.13;100.00;98513.19;5029130;28;20028;-74
2022/09/17 06:37:30;;;;;;;3.83;1.52;;;;;;;9.23;100.00;98515.53;5030633;28;20659;-73
2022/09/17 06:39:56;;;;;;;5.47;1.35;;;;;;;9.01;100.00;98487.81;5031772;28;20397;-69
2022/09/17 06:42:21;;;;;;;6.93;1.55;;;;;;;9.09;100.00;98517.34;5031177;28;20025;-69
2022/09/17 06:44:47;;;;;;;4.22;1.50;;;;;;;9.19;100.00;98519.66;5028775;28;20029;-72
2022/09/17 06:47:12;;;;;;;6.70;1.33;;;;;;;9.34;100.00;98524.91;5024515;28;20128;-69
2022/09/17 06:49:37;;;;;;;4.00;1.10;;;;;;;9.37;100.00;98522.63;5026525;28;20087;-69
2022/09/17 06:52:03;;;;;;;3.78;1.27;;;;;;;9.25;100.00;98510.75;5026245;28;20051;-76
2022/09/17 06:54:28;;;;;;;5.57;1.40;;;;;;;9.33;100.00;98515.16;5033065;28;20021;-72
2022/09/17 06:56:54;;;;;;;4.05;1.42;;;;;;;9.27;100.00;98518.63;5030317;28;20068;-72
2022/09/17 06:59:19;;;;;;;4.55;1.42;;;;;;;9.21;100.00;98521.13;5028998;28;20487;-74
2022/09/17 07:01:46;;;;;;;9.75;1.80;;;;;;;9.17;100.00;98521.75;5024582;28;20038;-73
2022/09/17 07:04:11;;;;;;;9.45;2.00;;;;;;;9.18;100.00;98526.09;5032704;28;20016;-75
2022/09/17 07:06:37;;;;;;;5.85;1.17;;;;;;;9.19;100.00;98544.75;5043000;28;20029;-77
2022/09/17 07:09:02;;;;;;;3.65;1.08;;;;;;;8.96;100.00;98539.69;5029060;28;20025;-71
2022/09/17 07:11:31;;;;;;;5.97;1.42;;;;;;;8.91;100.00;98522.44;5027471;28;20455;-75
2022/09/17 07:13:56;;;;;;;2.45;1.05;;;;;;;9.14;100.00;98543.72;5028545;28;20027;-75
2022/09/17 07:16:22;;;;;;;4.18;1.20;;;;;;;9.23;100.00;98544.38;5029845;28;20485;-75
2022/09/17 07:18:48;;;;;;;3.40;1.27;;;;;;;9.19;100.00;98533.16;5028911;28;20025;-77
2022/09/17 07:21:13;;;;;;;2.95;1.48;;;;;;;8.88;100.00;98499.41;5026734;28;20017;-76
2022/09/17 07:23:38;;;;;;;3.00;1.00;;;;;;;8.94;100.00;98524.75;5024121;28;20148;-74
2022/09/17 07:26:07;;;;;;;4.55;1.20;;;;;;;9.16;100.00;98563.25;5025103;28;20029;-75
2022/09/17 07:28:32;;;;;;;3.22;1.27;;;;;;;8.95;100.00;98564.16;5029735;28;20114;-70
2022/09/17 07:31:01;;;;;;;2.08;1.00;;;;;;;8.84;100.00;98552.06;5026131;28;20064;-71
2022/09/17 07:33:27;;;;;;;3.60;1.38;;;;;;;9.08;100.00;98568.81;5026505;28;20057;-70
2022/09/17 07:36:00;;;;;;;5.43;1.48;;;;;;;9.14;100.00;98568.00;5024515;28;20112;-68
2022/09/17 07:38:27;;;;;;;7.93;1.42;;;;;;;9.09;100.00;98567.75;5025838;28;20116;-68
2022/09/17 07:40:57;;;;;;;5.68;1.48;;;;;;;9.15;100.00;98567.81;5028564;28;20025;-68
2022/09/17 07:43:25;;;;;;;3.35;1.48;;;;;;;8.83;100.00;98536.94;5026207;28;20030;-69
2022/09/17 07:45:51;;;;;;;6.35;2.45;;;;;;;9.19;100.00;98569.06;5023333;28;20474;-77
2022/09/17 07:48:17;;;;;;;2.13;1.10;;;;;;;9.42;100.00;98571.44;5031527;28;20029;-69
2022/09/17 07:50:42;;;;;;;4.68;1.55;;;;;;;9.27;100.00;98549.16;5027669;28;20025;-70
2022/09/17 07:53:07;;;;;;;5.45;1.38;;;;;;;9.37;100.00;98575.78;5028930;28;20028;-74
2022/09/17 07:55:33;;;;;;;2.10;1.13;;;;;;;9.44;100.00;98577.50;5026677;28;20052;-69
2022/09/17 07:57:58;;;;;;;3.92;1.45;;;;;;;9.39;100.00;98579.97;5025935;28;20028;-69
2022/09/17 08:00:24;;;;;;;5.22;1.70;;;;;;;9.48;100.00;98587.88;5022271;28;20021;-76
2022/09/17 08:02:53;;;;;;;3.60;1.50;;;;;;;9.03;100.00;98565.88;5032168;28;20501;-75
2022/09/17 08:05:18;;;;;;;4.93;2.05;;;;;;;9.24;100.00;98571.16;5026138;28;20017;-73
2022/09/17 08:07:48;;;;;;;4.25;2.05;;;;;;;9.10;100.00;98585.63;5027794;28;20036;-70
2022/09/17 08:10:14;;;;;;;6.15;1.65;;;;;;;9.28;100.00;98590.50;5027856;28;20021;-73
2022/09/17 08:12:39;;;;;;;3.53;1.60;;;;;;;9.50;100.00;98581.25;5027807;28;21356;-76
2022/09/17 08:15:05;;;;;;;3.50;1.58;;;;;;;9.56;100.00;98590.41;5022992;28;20025;-70
2022/09/17 08:17:30;;;;;;;6.18;2.05;;;;;;;9.85;100.00;98587.41;5027601;28;20427;-70
2022/09/17 08:19:55;;;;;;;4.65;1.60;;;;;;;9.98;100.00;98588.44;5024449;28;20026;-70
2022/09/17 08:22:21;;;;;;;4.22;1.90;;;;;;;9.62;100.00;98551.81;5027473;28;20055;-77
2022/09/17 08:24:47;;;;;;;6.95;2.03;;;;;;;10.05;100.00;98578.50;5027177;28;20541;-70
2022/09/17 08:27:12;;;;;;;4.13;1.83;;;;;;;10.31;100.00;98583.97;5025161;28;20025;-68
2022/09/17 08:29:37;;;;;;;5.13;2.10;;;;;;;10.63;100.00;98583.34;5028944;28;20449;-69
2022/09/17 08:32:03;;;;;;;7.43;1.52;;;;;;;11.48;100.00;98586.91;5023214;28;20036;-75
2022/09/17 08:34:28;;;;;;;6.45;1.45;;;;;;;12.37;100.00;98574.31;5029456;28;20026;-69
2022/09/17 08:36:53;;;;;;;6.90;1.42;;;;;;;13.29;99.38;98573.69;5023063;28;20033;-66
2022/09/17 08:39:18;;;;;;;3.88;1.27;;;;;;;13.21;98.61;98584.81;5027664;28;20029;-70
2022/09/17 08:42:01;;;;;;;5.25;1.20;;;;;;;12.71;100.00;98573.00;5023806;28;20030;-71
2022/09/17 08:44:38;;;;;;;4.80;1.30;;;;;;;12.46;100.00;98586.53;5023057;28;20022;-71
2022/09/17 08:47:21;;;;;;;5.22;1.20;;;;;;;12.37;100.00;98581.63;5024991;28;20029;-69
2022/09/17 08:49:48;;;;;;;4.40;1.20;;;;;;;12.23;100.00;98580.88;5022597;28;20033;-70
2022/09/17 08:52:28;;;;;;;6.72;1.20;;;;;;;12.55;100.00;98591.69;5015820;28;20033;-67
2022/09/17 08:55:30;;;;;;;10.48;1.48;;;;;;;12.78;100.00;98585.66;5022590;28;20024;-75
2022/09/17 08:58:10;;;;;;;5.32;1.48;;;;;;;12.61;100.00;98590.84;5010964;28;20079;-76
2022/09/17 09:00:59;;;;;;;20.83;2.97;;;;;;;12.28;100.00;98578.34;5025646;28;20072;-68
2022/09/17 09:03:24;;;;;;;;;;;;;;;12.22;99.59;98585.47;5024342;28;20037;-70
2022/09/17 09:05:51;;;;;;;10.80;1.70;;;;;;;12.18;100.00;98594.25;5024761;28;20578;-69
2022/09/17 09:08:32;;;;;;;3.95;1.20;;;;;;;12.37;100.00;98596.03;5025614;28;20124;-71
2022/09/17 09:11:01;;;;;;;7.15;1.20;;;;;;;12.20;100.00;98589.47;5022162;28;20029;-71
2022/09/17 09:13:32;;;;;;;5.45;1.45;;;;;;;12.75;100.00;98580.69;5018359;28;20030;-69
2022/09/17 09:16:05;;;;;;;8.52;1.58;;;;;;;13.04;97.32;98595.44;5028908;28;20072;-71
2022/09/17 09:18:35;;;;;;;10.40;1.50;;;;;;;12.72;98.31;98599.06;5027547;28;20372;-70
2022/09/17 09:21:20;;;;;;;8.43;1.42;;;;;;;12.88;95.87;98599.56;5026413;28;20017;-73
2022/09/17 09:23:54;;;;;;;5.25;1.13;;;;;;;14.89;85.51;98594.00;5033910;28;20161;-77
2022/09/17 09:26:22;;;;;;;10.27;1.08;;;;;;;16.88;69.60;98591.66;5031107;28;20032;-76
2022/09/17 09:29:05;;;;;;;4.57;1.15;;;;;;;19.19;60.34;98575.88;5034887;28;20112;-74
2022/09/17 09:31:48;;;;;;;6.82;1.10;;;;;;;17.37;61.41;98588.25;5020152;28;20503;-69
2022/09/17 09:34:15;;;;;;;7.00;1.13;;;;;;;15.45;70.71;98573.44;5023209;28;20030;-69
2022/09/17 09:36:40;;;;;;;7.95;1.88;;;;;;;14.45;73.90;98585.28;5027247;28;20025;-72
2022/09/17 09:39:22;;;;;;;8.02;0.80;;;;;;;13.62;82.93;98588.75;5035789;28;20388;-79
2022/09/17 09:41:47;;;;;;;10.27;1.15;;;;;;;12.94;85.34;98591.38;5034086;28;20033;-72
2022/09/17 09:44:15;;;;;;;7.45;1.17;;;;;;;12.43;90.58;98578.84;5028621;28;20033;-71
2022/09/17 09:47:01;;;;;;;7.00;1.50;;;;;;;12.45;91.84;98598.47;5030303;28;20022;-71
2022/09/17 09:49:49;;;;;;;5.78;1.08;;;;;;;12.19;96.74;98588.63;5027464;28;20025;-71
2022/09/17 09:52:34;;;;;;;10.88;1.30;;;;;;;12.25;99.23;98587.75;5029648;28;20518;-71
2022/09/17 09:55:35;;;;;;;4.10;1.20;;;;;;;12.52;95.83;98582.13;5023779;28;20033;-71
2022/09/17 09:58:16;;;;;;;5.38;1.00;;;;;;;12.86;92.46;98588.09;5025600;28;20057;-71
2022/09/17 10:00:42;;;;;;;4.65;0.95;;;;;;;14.94;79.24;98576.97;5025158;28;20025;-71
2022/09/17 10:03:25;;;;;;;4.78;1.20;;;;;;;16.27;70.72;98568.75;5021198;28;20037;-71
2022/09/17 10:05:51;;;;;;;6.60;0.93;;;;;;;16.45;69.23;98576.72;5045649;28;20581;-70
2022/09/17 10:08:17;;;;;;;5.35;1.17;;;;;;;16.03;68.00;98565.34;5034609;28;20017;-72
2022/09/17 10:11:05;;;;;;;4.50;1.05;;;;;;;15.29;68.98;98572.28;5026557;28;20075;-76
2022/09/17 10:13:36;;;;;;;7.72;1.48;;;;;;;14.64;73.45;98578.69;5024536;28;20040;-69
2022/09/17 10:16:17;;;;;;;9.85;1.58;;;;;;;14.28;77.78;98579.69;5029837;28;20033;-72
2022/09/17 10:18:43;;;;;;;7.40;1.70;;;;;;;13.96;76.94;98569.06;5017621;28;20087;-74
2022/09/17 10:21:19;;;;;;;6.72;1.33;;;;;;;13.49;79.53;98565.28;5031357;28;20025;-73
2022/09/17 10:23:45;;;;;;;6.50;1.30;;;;;;;13.06;80.33;98553.41;5032786;28;20053;-76
2022/09/17 10:26:27;;;;;;;8.25;1.67;;;;;;;13.08;82.37;98553.19;5033665;28;20483;-75
2022/09/17 10:28:55;;;;;;;8.98;1.10;;;;;;;12.84;82.23;98558.47;5029113;28;20029;-73
2022/09/17 10:31:21;;;;;;;7.00;1.10;;;;;;;13.15;82.78;98565.66;5032719;28;20017;-74
2022/09/17 10:33:57;;;;;;;11.02;1.35;;;;;;;13.41;82.34;98562.88;5026285;28;20021;-74
2022/09/17 10:36:48;;;;;;;4.57;1.10;;;;;;;14.33;77.48;98560.78;5025031;28;20064;-74
2022/09/17 10:39:26;;;;;;;5.53;1.23;;;;;;;15.31;73.16;98553.81;5022680;28;20040;-75
2022/09/17 10:42:12;;;;;;;6.93;0.95;;;;;;;15.61;67.92;98560.13;5029616;28;20638;-74
2022/09/17 10:44:48;;;;;;;3.35;0.88;;;;;;;16.19;66.29;98548.16;5020776;28;20029;-75
2022/09/17 10:47:23;;;;;;;3.38;1.00;;;;;;;16.98;64.22;98544.56;5038275;22;20094;-68
2022/09/17 10:49:55;;;;;;;4.80;1.05;;;;;;;17.08;62.26;98544.66;5027380;28;20025;-69
2022/09/17 10:52:46;;;;;;;2.42;0.90;;;;;;;15.75;62.22;98547.91;5020828;28;20494;-70
2022/09/17 10:55:21;;;;;;;6.03;1.10;;;;;;;14.34;67.41;98539.81;5025864;28;20025;-72
2022/09/17 10:58:07;;;;;;;7.75;1.60;;;;;;;15.61;68.13;98541.03;5029352;28;20037;-72
2022/09/17 11:00:51;;;;;;;5.72;0.70;;;;;;;14.85;67.24;98535.59;5024760;28;20394;-69
2022/09/17 11:03:16;;;;;;;2.70;0.70;;;;;;;13.44;71.65;98543.41;5031996;28;20030;-69
2022/09/17 11:05:56;;;;;;;5.32;0.90;;;;;;;13.56;75.79;98552.44;5024665;28;20513;-68
2022/09/17 11:08:40;;;;;;;6.53;0.98;;;;;;;13.39;79.06;98565.84;5021825;28;20037;-68
2022/09/17 11:11:45;;;;;;;0.75;0.30;;;;;;;13.24;75.82;98578.94;5014260;28;20034;-68
2022/09/17 11:14:20;;;;;;;2.45;0.30;;;;;;;12.99;77.57;98571.66;5020546;28;20909;-67
2022/09/17 11:16:57;;;;;;;4.07;0.50;;;;;;;12.37;95.68;98578.91;5022586;28;20083;-68
2022/09/17 11:19:48;;;;;;;3.60;0.63;;;;;;;11.83;100.00;98572.97;5019633;28;20037;-68
2022/09/17 11:22:24;;;;;;;3.38;0.63;;;;;;;11.57;100.00;98555.78;5018510;28;20032;-68
2022/09/17 11:24:50;;;;;;;3.30;0.75;;;;;;;11.17;100.00;98539.72;5022212;28;20399;-68
2022/09/17 11:27:37;;;;;;;6.03;0.70;;;;;;;11.09;100.00;98549.97;5026733;28;20033;-68
2022/09/17 11:30:09;;;;;;;5.18;0.73;;;;;;;11.23;100.00;98567.81;5024479;28;20068;-68
2022/09/17 11:32:40;;;;;;;6.22;2.10;;;;;;;11.19;100.00;98561.19;5020642;28;20029;-68
2022/09/17 11:35:26;;;;;;;5.28;2.17;;;;;;;11.27;100.00;98554.69;5022635;28;20052;-68
2022/09/17 11:38:02;;;;;;;4.82;1.40;;;;;;;11.79;100.00;98525.69;5024165;28;20025;-69
2022/09/17 11:40:38;;;;;;;5.95;2.10;;;;;;;14.73;100.00;98538.34;5039834;28;20499;-68
2022/09/17 11:43:29;;;;;;;110.75;44.75;;;;;;;17.77;73.70;98527.78;5028884;28;20053;-68
2022/09/17 11:46:04;;;;;;;4.85;2.42;;;;;;;19.06;64.67;98533.28;5024271;28;20584;-68
2022/09/17 11:48:46;;;;;;;7.95;2.83;;;;;;;19.44;63.41;98520.31;5025725;28;20116;-69